Shepardsville, Indiana
Current Conditions -  °F | °C
As of 7:53 AM on Tuesday 21 Oct 2014 (Local Time) from KHUF Reporting Station
Overcast Overcast  
Wind Chill: 49°   Ceiling: 5000
Heat Index: 49°   Visibility: 9mi
Dew Point: 47°   Wind: 3mph
Humidity: 93%   Direction: 320°NW
Pressure: 30.06"   Gusts: NA
Location:  39.6°N, 87.42°W
Report Text: KHUF 211153Z 32003KT 9SM OVC050 09/08 A3006 RMK AO2 SLP179 T00940083 10100 20083 53015
Loading
Personal Weather Stations






























Interactive Weather Map New forecast layout! Learn more

10-Day Weather Forecast

Advertisements
Track Severe Weather on mobile